Time;durP1;ratioP1;P1;durP2;ratioP2;P2;SDS_P1;SDS_P2;PMS_P1;PMS_P2;Temp;Humidity;BMP_temperature;BMP_pressure;BME280_temperature;BME280_humidity;BME280_pressure;Samples;Min_cycle;Max_cycle;Signal;HPM_P1;HPM_P2
2022/12/08 00:01:54;;;;;;;20.27;2.85;;;;;;;;;;4996343;28;21802;-72
2022/12/08 00:04:22;;;;;;;14.98;2.63;;;;;;;;;;4999444;28;20044;-71
2022/12/08 00:09:36;;;;;;;8.60;1.40;;;;;;;;;;4998231;28;20264;-70
2022/12/08 00:12:03;;;;;;;19.67;1.42;;;;;;;;;;4999992;28;20778;-70
2022/12/08 00:14:30;;;;;;;14.93;1.70;;;;;;;;;;4978489;28;20044;-69
2022/12/08 00:16:56;;;;;;;20.33;2.63;;;;;;;;;;4998539;28;20397;-68
2022/12/08 00:19:24;;;;;;;15.60;2.88;;;;;;;;;;4996604;28;20610;-70
2022/12/08 00:21:50;;;;;;;22.75;2.40;;;;;;;;;;4998807;28;20445;-68
2022/12/08 00:24:16;;;;;;;25.48;2.50;;;;;;;;;;4999531;28;20037;-70
2022/12/08 00:26:41;;;;;;;19.67;3.08;;;;;;;;;;4981437;28;20273;-70
2022/12/08 00:29:07;;;;;;;19.13;2.20;;;;;;;;;;4998016;28;20132;-70
2022/12/08 00:31:33;;;;;;;15.48;1.98;;;;;;;;;;4983643;28;20420;-73
2022/12/08 00:33:59;;;;;;;15.20;2.20;;;;;;;;;;4998100;28;20394;-70
2022/12/08 00:36:25;;;;;;;19.40;2.40;;;;;;;;;;4999723;28;20137;-69
2022/12/08 00:38:50;;;;;;;17.73;2.13;;;;;;;;;;4964095;28;20265;-69
2022/12/08 00:41:17;;;;;;;18.98;1.83;;;;;;;;;;4999424;28;20272;-71
2022/12/08 00:43:43;;;;;;;21.50;2.08;;;;;;;;;;4999369;28;20036;-70
2022/12/08 00:46:08;;;;;;;17.00;2.50;;;;;;;;;;5000653;28;20837;-70
2022/12/08 00:48:34;;;;;;;17.50;3.20;;;;;;;;;;4997903;28;20149;-70
2022/12/08 00:51:02;;;;;;;14.60;2.65;;;;;;;;;;4980432;28;20057;-70
2022/12/08 00:53:30;;;;;;;17.98;2.15;;;;;;;;;;4983402;28;20045;-70
2022/12/08 00:55:58;;;;;;;15.65;2.00;;;;;;;;;;4976208;28;20668;-70
2022/12/08 00:58:23;;;;;;;6.65;1.30;;;;;;;;;;4977669;28;20507;-70
2022/12/08 01:00:49;;;;;;;18.63;2.00;;;;;;;;;;4986395;28;20604;-69
2022/12/08 01:03:14;;;;;;;16.48;2.63;;;;;;;;;;4995640;28;20045;-69
2022/12/08 01:05:39;;;;;;;22.42;2.58;;;;;;;;;;4996310;28;20033;-68
2022/12/08 01:08:05;;;;;;;21.98;2.80;;;;;;;;;;4997767;28;20056;-67
2022/12/08 01:10:33;;;;;;;13.52;1.80;;;;;;;;;;4986183;28;20041;-68
2022/12/08 01:12:59;;;;;;;15.07;1.98;;;;;;;;;;4997571;28;20080;-67
2022/12/08 01:15:27;;;;;;;23.60;2.75;;;;;;;;;;4976860;28;20662;-69
2022/12/08 01:17:55;;;;;;;20.10;3.13;;;;;;;;;;4971685;28;20092;-66
2022/12/08 01:20:23;;;;;;;22.63;3.80;;;;;;;;;;4996073;28;20056;-69
2022/12/08 01:22:48;;;;;;;15.50;2.03;;;;;;;;;;4994950;28;20025;-71
2022/12/08 01:25:14;;;;;;;17.17;1.83;;;;;;;;;;4999008;28;20044;-73
2022/12/08 01:27:39;;;;;;;10.77;1.42;;;;;;;;;;4985384;28;20230;-73
2022/12/08 01:30:05;;;;;;;6.95;1.40;;;;;;;;;;4981727;28;20037;-74
2022/12/08 01:32:31;;;;;;;14.85;1.30;;;;;;;;;;4979980;28;20025;-73
2022/12/08 01:34:56;;;;;;;8.88;1.27;;;;;;;;;;4999604;28;20595;-73
2022/12/08 01:37:21;;;;;;;18.33;2.63;;;;;;;;;;4999376;28;20474;-72
2022/12/08 01:39:47;;;;;;;17.42;2.40;;;;;;;;;;4979714;28;20038;-70
2022/12/08 01:42:18;;;;;;;17.92;2.88;;;;;;;;;;4999015;28;20198;-74
2022/12/08 01:44:43;;;;;;;15.38;2.10;;;;;;;;;;4976957;28;20922;-71
2022/12/08 01:47:09;;;;;;;34.78;3.33;;;;;;;;;;4999697;28;20037;-71
2022/12/08 01:49:35;;;;;;;15.95;1.80;;;;;;;;;;4980314;28;20173;-69
2022/12/08 01:52:12;;;;;;;29.27;3.28;;;;;;;;;;4999079;28;20077;-70
2022/12/08 01:54:58;;;;;;;17.05;2.58;;;;;;;;;;4998138;28;20488;-71
2022/12/08 01:57:28;;;;;;;16.42;2.45;;;;;;;;;;4976521;28;20363;-70
2022/12/08 01:59:58;;;;;;;18.73;1.85;;;;;;;;;;4996385;28;20040;-70
2022/12/08 02:02:27;;;;;;;15.82;1.30;;;;;;;;;;4998204;28;20079;-72
2022/12/08 02:04:52;;;;;;;16.20;2.65;;;;;;;;;;4994139;28;21728;-72
2022/12/08 02:07:17;;;;;;;12.07;1.77;;;;;;;;;;4998060;28;20040;-72
2022/12/08 02:09:44;;;;;;;17.35;2.10;;;;;;;;;;4998051;28;20757;-75
2022/12/08 02:12:12;;;;;;;19.65;2.42;;;;;;;;;;4998047;28;20324;-71
2022/12/08 02:14:37;;;;;;;18.70;2.20;;;;;;;;;;4995820;28;20715;-72
2022/12/08 02:17:15;;;;;;;12.18;2.30;;;;;;;;;;4976866;28;20036;-71
2022/12/08 02:20:06;;;;;;;22.50;2.17;;;;;;;;;;4995021;28;20044;-72
2022/12/08 02:23:01;;;;;;;10.35;1.70;;;;;;;;;;4979304;28;20511;-74
2022/12/08 02:25:50;;;;;;;13.18;2.45;;;;;;;;;;4979003;28;20551;-70
2022/12/08 02:28:31;;;;;;;18.83;2.35;;;;;;;;;;4997230;28;20675;-73
2022/12/08 02:31:07;;;;;;;17.50;2.00;;;;;;;;;;4995765;28;20134;-74
2022/12/08 02:33:51;;;;;;;18.17;2.90;;;;;;;;;;4998281;28;20037;-75
2022/12/08 02:36:20;;;;;;;14.27;1.63;;;;;;;;;;4996825;28;20441;-72
2022/12/08 02:38:57;;;;;;;22.95;2.70;;;;;;;;;;4994883;28;20041;-71
2022/12/08 02:41:47;;;;;;;7.80;1.40;;;;;;;;;;4997333;28;20128;-73
2022/12/08 02:44:21;;;;;;;9.82;1.35;;;;;;;;;;4981296;28;20041;-71
2022/12/08 02:46:51;;;;;;;14.30;1.85;;;;;;;;;;4975173;28;20044;-72
2022/12/08 02:49:16;;;;;;;9.98;1.30;;;;;;;;;;4978314;28;20102;-73
2022/12/08 02:51:41;;;;;;;12.98;1.90;;;;;;;;;;4978397;28;20144;-74
2022/12/08 03:10:45;;;;;;;19.05;1.90;;;;;;;;;;5041864;27;20700;-74
2022/12/08 03:13:11;;;;;;;13.75;1.95;;;;;;;;;;5037319;28;20644;-74
2022/12/08 03:15:37;;;;;;;11.35;1.77;;;;;;;;;;5036153;27;20127;-74
2022/12/08 03:18:02;;;;;;;15.27;1.90;;;;;;;;;;5030725;28;20125;-74
2022/12/08 03:20:31;;;;;;;25.42;2.28;;;;;;;;;;5036568;27;20032;-73
2022/12/08 03:22:59;;;;;;;17.55;2.70;;;;;;;;;;5034516;28;22282;-73
2022/12/08 03:25:26;;;;;;;19.92;2.45;;;;;;;;;;5049295;28;20042;-73
2022/12/08 03:27:52;;;;;;;21.65;2.40;;;;;;;;;;5038190;28;20035;-74
2022/12/08 03:30:17;;;;;;;24.20;2.80;;;;;;;;;;5036128;28;20032;-72
2022/12/08 03:32:46;;;;;;;22.85;2.88;;;;;;;;;;5034670;28;20310;-73
2022/12/08 03:35:16;;;;;;;29.55;3.80;;;;;;;;;;5035799;28;20382;-73
2022/12/08 03:37:42;;;;;;;25.08;3.25;;;;;;;;;;5033804;28;20037;-74
2022/12/08 03:40:11;;;;;;;23.30;2.70;;;;;;;;;;5036658;28;20934;-72
2022/12/08 03:42:38;;;;;;;14.63;1.85;;;;;;;;;;5044006;28;20043;-72
2022/12/08 03:45:04;;;;;;;19.02;2.35;;;;;;;;;;5035117;28;20037;-73
2022/12/08 03:47:29;;;;;;;18.38;1.83;;;;;;;;;;5037771;28;20684;-71
2022/12/08 03:49:55;;;;;;;13.05;1.90;;;;;;;;;;5036029;28;20039;-71
2022/12/08 03:52:20;;;;;;;15.90;2.63;;;;;;;;;;5064331;28;20190;-71
2022/12/08 03:54:46;;;;;;;13.25;2.10;;;;;;;;;;5030665;28;20029;-72
2022/12/08 03:57:11;;;;;;;23.65;2.38;;;;;;;;;;5043403;28;20036;-72
2022/12/08 03:59:37;;;;;;;23.48;3.40;;;;;;;;;;5035225;28;20036;-73
2022/12/08 04:02:02;;;;;;;14.57;1.85;;;;;;;;;;5030971;28;20048;-73
2022/12/08 04:04:27;;;;;;;20.75;2.03;;;;;;;;;;5035423;28;20573;-73
2022/12/08 04:06:53;;;;;;;17.77;2.00;;;;;;;;;;5034634;28;20032;-72
2022/12/08 04:09:18;;;;;;;18.58;2.20;;;;;;;;;;5011705;27;20133;-73
2022/12/08 04:11:44;;;;;;;19.05;2.78;;;;;;;;;;4978470;28;20797;-73
2022/12/08 04:14:09;;;;;;;11.15;2.15;;;;;;;;;;4976900;28;22416;-73
2022/12/08 04:16:35;;;;;;;14.95;1.65;;;;;;;;;;4970112;28;20585;-72
2022/12/08 04:19:00;;;;;;;11.05;1.70;;;;;;;;;;4976544;28;20330;-73
2022/12/08 04:21:26;;;;;;;25.58;3.00;;;;;;;;;;4959182;28;20034;-73
2022/12/08 04:23:54;;;;;;;13.68;1.80;;;;;;;;;;4978409;28;20037;-73
2022/12/08 04:26:19;;;;;;;14.77;2.08;;;;;;;;;;4979949;28;20040;-73
2022/12/08 04:28:45;;;;;;;16.60;2.00;;;;;;;;;;4960969;28;20460;-73
2022/12/08 04:31:12;;;;;;;17.52;2.30;;;;;;;;;;4945186;28;20581;-73
2022/12/08 04:33:40;;;;;;;28.42;2.80;;;;;;;;;;4959578;28;20503;-72
2022/12/08 04:36:06;;;;;;;25.27;2.88;;;;;;;;;;4978707;28;20037;-73
2022/12/08 04:38:34;;;;;;;14.63;2.03;;;;;;;;;;4962633;28;20148;-72
2022/12/08 04:40:59;;;;;;;20.38;2.33;;;;;;;;;;4943254;28;20121;-73
2022/12/08 04:43:25;;;;;;;15.63;2.45;;;;;;;;;;4978277;28;20041;-73
2022/12/08 04:45:50;;;;;;;19.45;2.25;;;;;;;;;;4977477;28;20212;-72
2022/12/08 04:48:15;;;;;;;24.80;2.55;;;;;;;;;;4977664;28;20083;-74
2022/12/08 04:50:42;;;;;;;14.48;1.75;;;;;;;;;;4977044;28;20029;-72
2022/12/08 04:53:08;;;;;;;8.70;1.58;;;;;;;;;;4978496;28;20140;-73
2022/12/08 04:55:34;;;;;;;8.52;1.30;;;;;;;;;;4974339;28;20069;-72
2022/12/08 04:57:59;;;;;;;13.32;1.83;;;;;;;;;;4956663;28;20036;-72
2022/12/08 05:00:25;;;;;;;16.00;2.20;;;;;;;;;;4977509;28;20293;-72
2022/12/08 05:02:50;;;;;;;16.60;2.25;;;;;;;;;;4977259;28;20699;-72
2022/12/08 05:05:16;;;;;;;16.10;2.30;;;;;;;;;;4977176;28;20038;-72
2022/12/08 05:07:41;;;;;;;21.73;3.25;;;;;;;;;;4977820;28;20038;-72
2022/12/08 05:10:07;;;;;;;11.80;2.00;;;;;;;;;;4979598;28;20605;-71
2022/12/08 05:12:32;;;;;;;11.90;1.48;;;;;;;;;;4954711;28;20126;-72
2022/12/08 05:14:58;;;;;;;13.68;2.72;;;;;;;;;;4957813;28;20566;-73
2022/12/08 05:17:23;;;;;;;18.77;2.60;;;;;;;;;;4977935;28;20037;-73
2022/12/08 05:19:49;;;;;;;18.38;2.40;;;;;;;;;;4956722;28;20153;-73
2022/12/08 05:22:14;;;;;;;15.10;2.13;;;;;;;;;;4958635;28;20068;-73
2022/12/08 05:24:40;;;;;;;25.48;2.65;;;;;;;;;;4961054;28;20046;-72
2022/12/08 05:27:08;;;;;;;14.32;2.47;;;;;;;;;;4961569;28;20064;-73
2022/12/08 05:29:33;;;;;;;15.98;2.33;;;;;;;;;;4979388;28;20370;-72
2022/12/08 05:31:59;;;;;;;9.80;1.33;;;;;;;;;;4960818;28;20436;-72
2022/12/08 05:34:24;;;;;;;10.52;1.40;;;;;;;;;;4979202;28;20985;-73
2022/12/08 05:36:50;;;;;;;12.90;1.40;;;;;;;;;;4960541;28;20246;-73
2022/12/08 05:39:15;;;;;;;9.10;1.60;;;;;;;;;;4961105;28;20581;-74
2022/12/08 05:41:40;;;;;;;18.02;2.30;;;;;;;;;;4945408;28;20144;-74
2022/12/08 05:44:06;;;;;;;17.55;3.08;;;;;;;;;;4976807;28;20144;-73
2022/12/08 05:46:32;;;;;;;18.70;2.25;;;;;;;;;;4960908;28;20041;-73
2022/12/08 05:49:01;;;;;;;26.15;2.63;;;;;;;;;;4977387;28;20366;-73
2022/12/08 05:51:27;;;;;;;17.38;2.42;;;;;;;;;;4977798;28;22159;-73
2022/12/08 05:53:53;;;;;;;17.83;2.03;;;;;;;;;;4956614;28;20339;-73
2022/12/08 05:56:19;;;;;;;6.72;0.98;;;;;;;;;;4978319;28;20522;-74
2022/12/08 05:58:44;;;;;;;9.43;1.10;;;;;;;;;;4959843;28;20077;-75
2022/12/08 06:01:27;;;;;;;13.60;2.25;;;;;;;;;;4979587;28;20133;-75
2022/12/08 06:03:52;;;;;;;16.60;2.42;;;;;;;;;;4982446;28;20037;-73
2022/12/08 06:06:18;;;;;;;15.05;2.03;;;;;;;;;;4964091;28;20029;-74
2022/12/08 06:08:43;;;;;;;24.65;3.38;;;;;;;;;;4972942;28;20303;-74
2022/12/08 06:11:09;;;;;;;20.90;3.38;;;;;;;;;;4965362;28;20091;-74
2022/12/08 06:13:34;;;;;;;20.30;3.55;;;;;;;;;;4982488;28;20210;-74
2022/12/08 06:16:06;;;;;;;25.45;3.33;;;;;;;;;;4964498;28;20033;-73
2022/12/08 06:18:31;;;;;;;14.32;2.33;;;;;;;;;;4979810;28;22062;-74
2022/12/08 06:21:07;;;;;;;19.15;2.17;;;;;;;;;;4979688;28;20582;-74
2022/12/08 06:23:32;;;;;;;26.48;3.67;;;;;;;;;;4981132;28;20083;-73
2022/12/08 06:26:01;;;;;;;18.05;2.30;;;;;;;;;;4982979;28;20041;-74
2022/12/08 06:28:26;;;;;;;19.95;2.40;;;;;;;;;;4981191;28;20364;-74
2022/12/08 06:30:54;;;;;;;14.85;2.70;;;;;;;;;;4982234;28;20132;-74
2022/12/08 06:33:20;;;;;;;18.42;2.38;;;;;;;;;;4965370;28;20786;-74
2022/12/08 06:35:45;;;;;;;10.60;2.03;;;;;;;;;;4985479;28;20154;-74
2022/12/08 06:38:10;;;;;;;13.18;2.53;;;;;;;;;;4990559;28;20079;-74
2022/12/08 06:40:38;;;;;;;13.40;1.85;;;;;;;;;;4988477;28;20277;-74
2022/12/08 06:43:03;;;;;;;9.57;1.90;;;;;;;;;;4981042;28;20782;-73
2022/12/08 06:45:28;;;;;;;12.15;1.42;;;;;;;;;;4954761;28;20553;-73
2022/12/08 06:47:54;;;;;;;12.30;2.10;;;;;;;;;;4960583;28;20129;-73
2022/12/08 06:50:19;;;;;;;15.65;2.20;;;;;;;;;;4975468;28;20030;-73
2022/12/08 06:52:45;;;;;;;16.48;2.30;;;;;;;;;;4955525;28;20029;-73
2022/12/08 06:55:10;;;;;;;13.20;2.30;;;;;;;;;;4976096;28;20493;-73
2022/12/08 06:57:38;;;;;;;9.25;1.95;;;;;;;;;;4977826;28;20034;-74
2022/12/08 07:00:05;;;;;;;9.93;1.70;;;;;;;;;;4948922;28;20082;-74
2022/12/08 07:02:30;;;;;;;10.63;2.10;;;;;;;;;;4957725;28;20055;-74
2022/12/08 07:04:55;;;;;;;8.32;1.60;;;;;;;;;;4964466;28;20037;-74
2022/12/08 07:07:21;;;;;;;5.28;1.65;;;;;;;;;;4962109;28;20534;-74
2022/12/08 07:09:47;;;;;;;6.97;1.50;;;;;;;;;;4979915;28;20609;-74
2022/12/08 07:12:12;;;;;;;8.85;1.80;;;;;;;;;;4979803;28;20200;-74
2022/12/08 07:14:38;;;;;;;8.95;1.80;;;;;;;;;;4979880;28;20592;-74
2022/12/08 07:17:03;;;;;;;13.65;2.15;;;;;;;;;;4979636;28;20426;-73
2022/12/08 07:19:29;;;;;;;15.63;2.10;;;;;;;;;;4979778;28;20152;-73
2022/12/08 07:21:54;;;;;;;9.95;1.73;;;;;;;;;;4961703;28;20075;-73
2022/12/08 07:24:19;;;;;;;14.98;2.20;;;;;;;;;;4960817;28;20038;-74
2022/12/08 07:26:44;;;;;;;13.05;2.00;;;;;;;;;;4977978;28;20210;-74
2022/12/08 07:29:10;;;;;;;13.25;1.77;;;;;;;;;;4960795;28;20665;-74
2022/12/08 07:31:38;;;;;;;15.60;1.77;;;;;;;;;;4977698;28;20038;-75
2022/12/08 07:34:03;;;;;;;14.95;2.20;;;;;;;;;;4978165;28;20412;-76
2022/12/08 07:36:29;;;;;;;17.08;2.08;;;;;;;;;;4975733;28;20422;-73
2022/12/08 07:38:55;;;;;;;8.65;1.50;;;;;;;;;;4962466;28;20140;-74
2022/12/08 07:41:23;;;;;;;7.65;1.30;;;;;;;;;;4977353;28;20127;-76
2022/12/08 07:43:48;;;;;;;7.20;0.98;;;;;;;;;;4979955;28;20048;-80
2022/12/08 07:46:14;;;;;;;7.80;1.05;;;;;;;;;;4980511;28;20041;-77
2022/12/08 07:48:40;;;;;;;17.15;2.78;;;;;;;;;;4985922;28;20060;-77
2022/12/08 07:51:08;;;;;;;13.30;2.13;;;;;;;;;;4985061;28;20045;-77
2022/12/08 07:53:38;;;;;;;24.48;3.00;;;;;;;;;;4980549;28;20702;-75
2022/12/08 07:56:07;;;;;;;12.85;2.35;;;;;;;;;;4983108;28;20075;-75
2022/12/08 07:58:32;;;;;;;21.23;2.42;;;;;;;;;;4981612;28;20056;-78
2022/12/08 08:01:00;;;;;;;24.60;3.25;;;;;;;;;;4978911;28;20294;-75
2022/12/08 08:03:25;;;;;;;13.73;2.17;;;;;;;;;;4962094;28;21744;-75
2022/12/08 08:05:51;;;;;;;17.35;2.97;;;;;;;;;;4976734;27;20509;-75
2022/12/08 08:08:17;;;;;;;13.05;1.90;;;;;;;;;;4975565;27;20561;-75
2022/12/08 08:10:47;;;;;;;21.77;2.25;;;;;;;;;;4976466;28;20671;-77
2022/12/08 08:13:12;;;;;;;15.25;1.98;;;;;;;;;;4958674;28;20118;-75
2022/12/08 08:15:39;;;;;;;13.05;2.17;;;;;;;;;;4978684;28;20137;-76
2022/12/08 08:18:04;;;;;;;11.65;1.60;;;;;;;;;;4980224;28;20762;-75
2022/12/08 08:20:30;;;;;;;22.75;2.72;;;;;;;;;;4981848;28;20029;-75
2022/12/08 08:22:57;;;;;;;12.43;1.98;;;;;;;;;;4926707;28;20637;-76
2022/12/08 08:25:23;;;;;;;10.88;1.42;;;;;;;;;;4980483;28;20415;-76
2022/12/08 08:27:48;;;;;;;5.03;1.20;;;;;;;;;;4948769;28;20417;-75
2022/12/08 08:30:14;;;;;;;5.85;1.10;;;;;;;;;;4980983;28;20719;-75
2022/12/08 08:32:41;;;;;;;4.03;0.90;;;;;;;;;;4979289;28;20026;-75
2022/12/08 08:35:07;;;;;;;4.18;0.80;;;;;;;;;;4979833;28;20037;-75
2022/12/08 08:37:33;;;;;;;6.90;1.38;;;;;;;;;;4982413;28;20194;-75
2022/12/08 08:39:59;;;;;;;6.95;1.20;;;;;;;;;;4961118;28;20045;-75
2022/12/08 08:42:25;;;;;;;3.45;0.90;;;;;;;;;;4962991;28;20034;-75
2022/12/08 08:44:50;;;;;;;6.03;0.75;;;;;;;;;;4961607;28;20158;-76
2022/12/08 08:47:16;;;;;;;7.85;1.10;;;;;;;;;;4957475;28;21382;-75
2022/12/08 08:49:41;;;;;;;5.40;0.90;;;;;;;;;;4975637;28;20183;-76
2022/12/08 08:52:06;;;;;;;4.38;0.90;;;;;;;;;;4945346;28;20602;-75
2022/12/08 08:54:32;;;;;;;3.00;0.90;;;;;;;;;;4959285;28;20033;-75
2022/12/08 08:56:58;;;;;;;5.78;0.70;;;;;;;;;;4981101;28;20791;-75
2022/12/08 08:59:23;;;;;;;3.35;1.02;;;;;;;;;;4979996;28;20183;-76
2022/12/08 09:01:49;;;;;;;3.85;1.15;;;;;;;;;;4957232;28;20189;-76
2022/12/08 09:04:14;;;;;;;4.70;1.40;;;;;;;;;;4982664;28;20085;-76
2022/12/08 09:06:41;;;;;;;5.50;1.17;;;;;;;;;;4978093;28;20044;-77
2022/12/08 09:09:07;;;;;;;4.35;1.15;;;;;;;;;;4978578;28;20183;-75
2022/12/08 09:11:32;;;;;;;4.00;1.40;;;;;;;;;;4974120;28;20256;-76
2022/12/08 09:13:57;;;;;;;4.43;1.30;;;;;;;;;;4944706;28;20033;-76
2022/12/08 09:16:23;;;;;;;6.30;1.00;;;;;;;;;;4977027;28;20639;-76
2022/12/08 09:18:48;;;;;;;3.95;0.90;;;;;;;;;;4962991;28;20412;-76
2022/12/08 09:21:19;;;;;;;10.75;1.17;;;;;;;;;;4964061;28;20037;-75
2022/12/08 09:23:44;;;;;;;5.30;1.00;;;;;;;;;;4957302;28;20316;-75
2022/12/08 09:26:09;;;;;;;10.60;1.40;;;;;;;;;;4961432;28;20075;-78
2022/12/08 09:28:35;;;;;;;8.18;1.20;;;;;;;;;;4962718;28;20086;-77
2022/12/08 09:31:00;;;;;;;20.85;10.52;;;;;;;;;;4959178;28;20046;-76
2022/12/08 09:33:26;;;;;;;15.05;9.50;;;;;;;;;;4964065;28;20041;-78
2022/12/08 09:35:51;;;;;;;17.00;9.57;;;;;;;;;;4980097;28;20042;-77
2022/12/08 09:38:16;;;;;;;19.25;10.85;;;;;;;;;;4963504;28;20476;-76
2022/12/08 09:40:49;;;;;;;18.10;7.60;;;;;;;;;;4944993;28;20526;-77
2022/12/08 09:43:14;;;;;;;;;;;;;;;;;;4982101;28;20182;-76
2022/12/08 09:45:39;;;;;;;12.43;4.25;;;;;;;;;;4963501;28;19921;-76
2022/12/08 09:48:10;;;;;;;9.63;3.20;;;;;;;;;;4983399;28;20037;-76
2022/12/08 09:50:38;;;;;;;15.10;2.85;;;;;;;;;;4979350;28;20490;-76
2022/12/08 09:53:24;;;;;;;10.20;2.90;;;;;;;;;;4981749;28;20170;-76
2022/12/08 09:55:57;;;;;;;10.07;2.72;;;;;;;;;;4966029;28;20789;-77
2022/12/08 09:58:31;;;;;;;11.40;2.80;;;;;;;;;;4966023;28;20490;-77
2022/12/08 10:00:56;;;;;;;21.23;3.30;;;;;;;;;;4982630;28;20077;-77
2022/12/08 10:03:26;;;;;;;23.27;3.45;;;;;;;;;;4979192;28;20042;-77
2022/12/08 10:06:11;;;;;;;17.30;2.80;;;;;;;;;;4983217;28;20025;-77
2022/12/08 10:08:42;;;;;;;25.33;3.78;;;;;;;;;;4949904;28;20526;-78
2022/12/08 10:11:13;;;;;;;29.48;2.67;;;;;;;;;;4962046;28;20657;-78
2022/12/08 10:14:14;;;;;;;19.42;2.30;;;;;;;;;;4983332;28;20075;-77
2022/12/08 10:16:40;;;;;;;20.30;2.50;;;;;;;;;;4920642;28;20870;-77
2022/12/08 10:19:32;;;;;;;14.43;4.78;;;;;;;;;;4968600;28;20456;-77
2022/12/08 10:21:57;;;;;;;12.20;4.88;;;;;;;;;;4979299;28;21971;-77
2022/12/08 10:24:33;;;;;;;19.17;7.32;;;;;;;;;;4981543;28;20044;-77
2022/12/08 10:27:00;;;;;;;17.45;7.78;;;;;;;;;;4959733;28;20065;-76
2022/12/08 10:29:26;;;;;;;17.48;4.88;;;;;;;;;;4986765;28;20412;-76
2022/12/08 10:31:57;;;;;;;19.73;5.65;;;;;;;;;;4991779;28;20040;-79
2022/12/08 10:34:23;;;;;;;16.67;6.32;;;;;;;;;;4986456;28;20498;-79
2022/12/08 10:36:49;;;;;;;19.75;6.50;;;;;;;;;;4984850;28;20178;-78
2022/12/08 10:39:35;;;;;;;16.38;5.30;;;;;;;;;;4964198;28;20580;-78
2022/12/08 10:42:01;;;;;;;15.32;5.40;;;;;;;;;;4963576;28;20523;-78
2022/12/08 10:44:27;;;;;;;12.07;5.78;;;;;;;;;;4981682;28;21432;-76
2022/12/08 10:46:52;;;;;;;21.10;5.35;;;;;;;;;;4976674;28;20565;-77
2022/12/08 10:49:24;;;;;;;8.95;3.90;;;;;;;;;;4958210;28;20068;-76
2022/12/08 10:51:50;;;;;;;16.27;4.43;;;;;;;;;;4975816;28;20491;-78
2022/12/08 10:54:31;;;;;;;13.93;5.15;;;;;;;;;;4968084;28;20051;-78
2022/12/08 10:56:57;;;;;;;10.55;4.80;;;;;;;;;;4979333;28;20501;-78
2022/12/08 10:59:26;;;;;;;16.52;4.80;;;;;;;;;;4979452;28;20045;-77
2022/12/08 11:04:22;;;;;;;13.43;3.30;;;;;;;;;;4950158;23;20663;-69
2022/12/08 11:06:49;;;;;;;11.07;3.80;;;;;;;;;;4936600;28;20159;-69
2022/12/08 11:09:14;;;;;;;17.80;4.25;;;;;;;;;;4935012;28;20156;-69
2022/12/08 11:11:47;;;;;;;16.58;3.90;;;;;;;;;;4933506;28;20042;-70
2022/12/08 11:14:20;;;;;;;11.70;3.50;;;;;;;;;;4932000;28;20111;-69
2022/12/08 11:16:48;;;;;;;13.00;3.65;;;;;;;;;;4933485;28;20039;-68
2022/12/08 11:19:14;;;;;;;11.07;2.72;;;;;;;;;;4934746;28;21043;-69
2022/12/08 11:21:41;;;;;;;17.05;7.28;;;;;;;;;;4940610;28;20042;-70
2022/12/08 11:24:26;;;;;;;17.58;8.25;;;;;;;;;;4923361;28;20046;-69
2022/12/08 11:26:53;;;;;;;14.35;3.92;;;;;;;;;;4935570;28;20134;-70
2022/12/08 11:29:19;;;;;;;7.80;3.03;;;;;;;;;;4935811;28;20353;-69
2022/12/08 11:31:52;;;;;;;9.68;2.40;;;;;;;;;;4940134;28;20457;-68
2022/12/08 11:34:30;;;;;;;12.05;2.47;;;;;;;;;;4939081;28;20076;-69
2022/12/08 11:36:58;;;;;;;9.25;3.10;;;;;;;;;;4936845;28;20700;-69
2022/12/08 11:39:28;;;;;;;12.00;3.10;;;;;;;;;;4936676;28;20518;-69
2022/12/08 11:41:56;;;;;;;13.55;4.00;;;;;;;;;;4933795;28;20204;-69
2022/12/08 11:44:24;;;;;;;15.68;5.63;;;;;;;;;;4941076;28;20034;-68
2022/12/08 11:46:55;;;;;;;13.48;5.28;;;;;;;;;;4939729;28;20033;-68
2022/12/08 11:49:24;;;;;;;10.73;4.80;;;;;;;;;;4939274;28;20049;-69
2022/12/08 11:51:53;;;;;;;11.32;3.92;;;;;;;;;;4939939;28;20404;-70
2022/12/08 11:54:33;;;;;;;22.92;6.03;;;;;;;;;;4941856;28;20114;-69
2022/12/08 11:57:09;;;;;;;15.85;4.63;;;;;;;;;;4941010;28;20038;-69
2022/12/08 11:59:41;;;;;;;12.18;2.40;;;;;;;;;;4939466;28;20050;-69
2022/12/08 12:02:11;;;;;;;9.68;1.50;;;;;;;;;;4940644;28;20042;-69
2022/12/08 12:04:39;;;;;;;9.68;1.95;;;;;;;;;;4918644;28;20046;-69
2022/12/08 12:07:05;;;;;;;6.60;1.38;;;;;;;;;;4940567;28;20065;-68
2022/12/08 12:09:33;;;;;;;9.82;1.40;;;;;;;;;;4939724;28;20103;-69
2022/12/08 12:12:18;;;;;;;5.35;1.20;;;;;;;;;;4939485;28;20039;-69
2022/12/08 12:14:43;;;;;;;12.90;1.60;;;;;;;;;;4939797;28;20096;-69
2022/12/08 12:17:27;;;;;;;12.45;1.50;;;;;;;;;;4940963;28;20160;-69
2022/12/08 12:19:56;;;;;;;11.68;1.30;;;;;;;;;;4918504;28;20055;-69
2022/12/08 12:22:25;;;;;;;11.20;1.38;;;;;;;;;;4939160;28;20065;-68
2022/12/08 12:24:51;;;;;;;7.88;1.80;;;;;;;;;;4939764;28;20121;-69
2022/12/08 12:27:26;;;;;;;11.30;2.55;;;;;;;;;;4942022;28;22614;-69
2022/12/08 12:29:57;;;;;;;11.82;2.20;;;;;;;;;;4939719;28;20348;-69
2022/12/08 12:32:23;;;;;;;8.73;2.28;;;;;;;;;;4940030;28;20395;-68
2022/12/08 12:34:51;;;;;;;8.68;1.30;;;;;;;;;;4941194;28;20169;-69
2022/12/08 12:37:18;;;;;;;10.10;1.73;;;;;;;;;;4919360;28;20433;-69
2022/12/08 12:39:46;;;;;;;11.70;1.40;;;;;;;;;;4919896;28;20097;-69
2022/12/08 12:42:33;;;;;;;10.82;1.50;;;;;;;;;;4917585;28;20315;-67
2022/12/08 12:45:16;;;;;;;11.57;1.88;;;;;;;;;;4938115;28;20030;-70
2022/12/08 12:47:49;;;;;;;9.65;2.10;;;;;;;;;;4935220;28;20069;-69
2022/12/08 12:50:33;;;;;;;7.40;1.38;;;;;;;;;;4917138;28;21049;-68
2022/12/08 12:53:25;;;;;;;8.38;1.80;;;;;;;;;;4936946;28;20350;-69
2022/12/08 12:55:57;;;;;;;6.18;1.52;;;;;;;;;;4936630;28;20151;-70
2022/12/08 12:58:28;;;;;;;12.38;1.40;;;;;;;;;;4921130;28;20035;-68
2022/12/08 13:01:09;;;;;;;9.30;1.50;;;;;;;;;;4916905;28;20085;-69
2022/12/08 13:03:39;;;;;;;9.48;2.20;;;;;;;;;;4937051;28;20034;-69
2022/12/08 13:06:05;;;;;;;6.72;1.50;;;;;;;;;;4938254;28;20045;-69
2022/12/08 13:08:30;;;;;;;8.25;1.55;;;;;;;;;;4917005;28;20042;-68
2022/12/08 13:11:08;;;;;;;6.72;1.30;;;;;;;;;;4936252;28;20365;-68
2022/12/08 13:13:36;;;;;;;7.35;1.42;;;;;;;;;;4917657;28;20064;-68
2022/12/08 13:16:04;;;;;;;8.88;2.88;;;;;;;;;;4935693;28;20038;-68
2022/12/08 13:18:39;;;;;;;9.18;2.53;;;;;;;;;;4937561;28;20217;-69
2022/12/08 13:21:04;;;;;;;8.13;2.22;;;;;;;;;;4919807;28;20091;-69
2022/12/08 13:23:36;;;;;;;6.03;2.20;;;;;;;;;;4939958;28;20185;-69
2022/12/08 13:26:09;;;;;;;7.05;3.20;;;;;;;;;;4941305;28;20034;-69
2022/12/08 13:28:54;;;;;;;8.05;5.25;;;;;;;;;;4942297;28;20085;-69
2022/12/08 13:31:36;;;;;;;6.32;4.03;;;;;;;;;;4941734;28;20035;-70
2022/12/08 13:34:05;;;;;;;7.63;3.60;;;;;;;;;;4942435;28;20034;-68
2022/12/08 13:36:40;;;;;;;7.10;3.47;;;;;;;;;;4940786;28;20113;-69
2022/12/08 13:39:05;;;;;;;9.77;4.72;;;;;;;;;;4938838;28;20047;-70
2022/12/08 13:41:39;;;;;;;8.38;4.70;;;;;;;;;;4921237;28;20038;-68
2022/12/08 13:44:06;;;;;;;12.63;8.38;;;;;;;;;;4941855;28;20038;-68
2022/12/08 13:46:39;;;;;;;20.30;12.23;;;;;;;;;;4939427;28;20381;-69
2022/12/08 13:49:05;;;;;;;14.52;9.05;;;;;;;;;;4937929;28;20076;-70
2022/12/08 13:51:38;;;;;;;13.57;9.68;;;;;;;;;;4938592;28;20559;-68
2022/12/08 13:54:08;;;;;;;9.65;6.97;;;;;;;;;;4938040;28;20072;-69
2022/12/08 13:56:41;;;;;;;9.18;7.10;;;;;;;;;;4938929;28;20039;-69
2022/12/08 13:59:28;;;;;;;12.48;7.82;;;;;;;;;;4935347;28;20043;-69
2022/12/08 14:01:55;;;;;;;14.30;8.20;;;;;;;;;;4935593;28;20057;-69
2022/12/08 14:04:24;;;;;;;12.60;8.65;;;;;;;;;;4938054;28;20073;-68
2022/12/08 14:07:09;;;;;;;15.40;8.60;;;;;;;;;;4938447;28;20038;-69
2022/12/08 14:09:35;;;;;;;12.23;9.13;;;;;;;;;;4921063;28;20203;-71
2022/12/08 14:12:03;;;;;;;17.73;8.60;;;;;;;;;;4939513;28;20463;-72
2022/12/08 14:14:33;;;;;;;12.68;7.35;;;;;;;;;;4939374;28;20043;-69
2022/12/08 14:17:06;;;;;;;15.80;6.32;;;;;;;;;;4937295;28;20568;-70
2022/12/08 14:19:35;;;;;;;11.65;3.35;;;;;;;;;;4939680;28;20894;-69
2022/12/08 14:22:13;;;;;;;13.10;3.53;;;;;;;;;;4906658;28;20043;-69
2022/12/08 14:24:56;;;;;;;13.45;3.05;;;;;;;;;;4873468;28;20054;-71
2022/12/08 14:27:24;;;;;;;16.42;4.13;;;;;;;;;;4870377;28;20072;-69
2022/12/08 14:29:51;;;;;;;14.40;4.07;;;;;;;;;;4870371;28;20179;-69
2022/12/08 14:32:24;;;;;;;15.50;3.65;;;;;;;;;;4872745;28;20127;-70
2022/12/08 14:34:55;;;;;;;12.77;3.90;;;;;;;;;;4873321;28;20502;-69
2022/12/08 14:37:21;;;;;;;14.68;4.70;;;;;;;;;;4873331;29;20338;-70
2022/12/08 14:39:46;;;;;;;11.63;4.10;;;;;;;;;;4873739;28;20151;-69
2022/12/08 14:42:22;;;;;;;7.93;2.92;;;;;;;;;;4872691;28;20315;-70
2022/12/08 14:44:54;;;;;;;8.20;2.30;;;;;;;;;;4854980;29;20040;-69
2022/12/08 14:47:21;;;;;;;10.20;3.20;;;;;;;;;;4861390;28;20448;-69
2022/12/08 14:49:47;;;;;;;9.77;2.85;;;;;;;;;;4871947;29;20038;-68
2022/12/08 14:52:13;;;;;;;7.95;2.97;;;;;;;;;;4873018;28;20044;-70
2022/12/08 14:54:39;;;;;;;12.98;3.80;;;;;;;;;;4870696;28;20095;-70
2022/12/08 14:57:05;;;;;;;7.95;2.60;;;;;;;;;;4933020;28;20497;-69
2022/12/08 14:59:32;;;;;;;6.18;2.63;;;;;;;;;;4935425;28;20110;-70
2022/12/08 15:02:20;;;;;;;9.48;2.67;;;;;;;;;;4937422;28;20274;-70
2022/12/08 15:04:47;;;;;;;9.00;3.63;;;;;;;;;;4935690;28;20180;-70